sensor_id;sensor_type;location;lat;lon;timestamp;P1;durP1;ratioP1;P2;durP2;ratioP2
72573;SDS011;60603;52.548;13.420;2022-08-19T00:01:53;15.63;;;11.60;;
72573;SDS011;60603;52.548;13.420;2022-08-19T00:04:22;14.82;;;11.73;;
72573;SDS011;60603;52.548;13.420;2022-08-19T00:09:17;18.50;;;12.57;;
72573;SDS011;60603;52.548;13.420;2022-08-19T00:11:44;18.35;;;12.30;;
72573;SDS011;60603;52.548;13.420;2022-08-19T00:14:12;17.95;;;12.95;;
72573;SDS011;60603;52.548;13.420;2022-08-19T00:16:39;16.63;;;13.00;;
72573;SDS011;60603;52.548;13.420;2022-08-19T00:19:06;17.17;;;13.45;;
72573;SDS011;60603;52.548;13.420;2022-08-19T00:21:32;20.25;;;13.52;;
72573;SDS011;60603;52.548;13.420;2022-08-19T00:24:01;18.63;;;13.57;;
72573;SDS011;60603;52.548;13.420;2022-08-19T00:26:28;20.75;;;14.25;;
72573;SDS011;60603;52.548;13.420;2022-08-19T00:28:54;20.60;;;14.18;;
72573;SDS011;60603;52.548;13.420;2022-08-19T00:31:20;21.30;;;15.05;;
72573;SDS011;60603;52.548;13.420;2022-08-19T00:33:46;20.42;;;14.82;;
72573;SDS011;60603;52.548;13.420;2022-08-19T00:36:14;18.73;;;13.55;;
72573;SDS011;60603;52.548;13.420;2022-08-19T00:38:40;20.48;;;15.07;;
72573;SDS011;60603;52.548;13.420;2022-08-19T00:41:10;21.33;;;14.90;;
72573;SDS011;60603;52.548;13.420;2022-08-19T00:43:38;19.48;;;14.23;;
72573;SDS011;60603;52.548;13.420;2022-08-19T00:46:05;19.83;;;14.60;;
72573;SDS011;60603;52.548;13.420;2022-08-19T00:48:31;17.88;;;13.48;;
72573;SDS011;60603;52.548;13.420;2022-08-19T00:50:58;19.85;;;14.00;;
72573;SDS011;60603;52.548;13.420;2022-08-19T00:53:26;21.45;;;13.77;;
72573;SDS011;60603;52.548;13.420;2022-08-19T00:55:53;19.80;;;13.25;;
72573;SDS011;60603;52.548;13.420;2022-08-19T00:58:21;16.02;;;12.70;;
72573;SDS011;60603;52.548;13.420;2022-08-19T01:00:48;15.95;;;12.65;;
72573;SDS011;60603;52.548;13.420;2022-08-19T01:03:15;18.52;;;14.23;;
72573;SDS011;60603;52.548;13.420;2022-08-19T01:05:43;18.05;;;13.13;;
72573;SDS011;60603;52.548;13.420;2022-08-19T01:08:10;22.50;;;14.40;;
72573;SDS011;60603;52.548;13.420;2022-08-19T01:10:47;18.95;;;12.68;;
72573;SDS011;60603;52.548;13.420;2022-08-19T01:13:15;17.40;;;12.45;;
72573;SDS011;60603;52.548;13.420;2022-08-19T01:15:43;15.63;;;11.98;;
72573;SDS011;60603;52.548;13.420;2022-08-19T01:20:39;17.52;;;13.30;;
72573;SDS011;60603;52.548;13.420;2022-08-19T01:23:05;18.17;;;13.25;;
72573;SDS011;60603;52.548;13.420;2022-08-19T01:25:35;17.50;;;12.90;;
72573;SDS011;60603;52.548;13.420;2022-08-19T01:28:18;17.63;;;13.00;;
72573;SDS011;60603;52.548;13.420;2022-08-19T01:30:46;18.60;;;13.63;;
72573;SDS011;60603;52.548;13.420;2022-08-19T01:33:12;21.80;;;14.55;;
72573;SDS011;60603;52.548;13.420;2022-08-19T01:35:38;19.30;;;13.35;;
72573;SDS011;60603;52.548;13.420;2022-08-19T01:38:06;20.77;;;14.38;;
72573;SDS011;60603;52.548;13.420;2022-08-19T01:40:35;21.33;;;15.55;;
72573;SDS011;60603;52.548;13.420;2022-08-19T01:43:03;19.85;;;14.02;;
72573;SDS011;60603;52.548;13.420;2022-08-19T01:45:30;18.33;;;13.23;;
72573;SDS011;60603;52.548;13.420;2022-08-19T01:47:57;20.45;;;14.27;;
72573;SDS011;60603;52.548;13.420;2022-08-19T01:50:23;19.08;;;13.57;;
72573;SDS011;60603;52.548;13.420;2022-08-19T01:52:50;22.13;;;14.55;;
72573;SDS011;60603;52.548;13.420;2022-08-19T01:55:17;21.30;;;15.80;;
72573;SDS011;60603;52.548;13.420;2022-08-19T01:57:47;20.10;;;15.07;;
72573;SDS011;60603;52.548;13.420;2022-08-19T02:00:17;21.60;;;14.68;;
72573;SDS011;60603;52.548;13.420;2022-08-19T02:02:44;22.10;;;15.27;;
72573;SDS011;60603;52.548;13.420;2022-08-19T02:05:10;23.00;;;16.13;;
72573;SDS011;60603;52.548;13.420;2022-08-19T02:07:37;24.23;;;15.93;;
72573;SDS011;60603;52.548;13.420;2022-08-19T02:10:08;24.08;;;17.05;;
72573;SDS011;60603;52.548;13.420;2022-08-19T02:12:36;22.92;;;16.50;;
72573;SDS011;60603;52.548;13.420;2022-08-19T02:15:02;21.52;;;16.15;;
72573;SDS011;60603;52.548;13.420;2022-08-19T02:17:29;22.70;;;16.08;;
72573;SDS011;60603;52.548;13.420;2022-08-19T02:19:55;23.55;;;16.55;;
72573;SDS011;60603;52.548;13.420;2022-08-19T02:22:22;26.40;;;17.48;;
72573;SDS011;60603;52.548;13.420;2022-08-19T02:24:48;27.00;;;18.73;;
72573;SDS011;60603;52.548;13.420;2022-08-19T02:27:14;34.05;;;19.98;;
72573;SDS011;60603;52.548;13.420;2022-08-19T02:29:40;24.98;;;16.10;;
72573;SDS011;60603;52.548;13.420;2022-08-19T02:32:06;22.45;;;14.93;;
72573;SDS011;60603;52.548;13.420;2022-08-19T02:34:32;21.17;;;14.52;;
72573;SDS011;60603;52.548;13.420;2022-08-19T02:36:58;19.08;;;14.35;;
72573;SDS011;60603;52.548;13.420;2022-08-19T02:39:24;18.52;;;13.63;;
72573;SDS011;60603;52.548;13.420;2022-08-19T02:41:50;19.27;;;13.57;;
72573;SDS011;60603;52.548;13.420;2022-08-19T02:44:17;20.17;;;15.65;;
72573;SDS011;60603;52.548;13.420;2022-08-19T02:46:44;19.23;;;13.15;;
72573;SDS011;60603;52.548;13.420;2022-08-19T02:49:11;17.52;;;12.10;;
72573;SDS011;60603;52.548;13.420;2022-08-19T02:51:37;17.35;;;11.85;;
72573;SDS011;60603;52.548;13.420;2022-08-19T02:54:06;17.73;;;13.15;;
72573;SDS011;60603;52.548;13.420;2022-08-19T02:56:34;17.70;;;12.85;;
72573;SDS011;60603;52.548;13.420;2022-08-19T02:59:01;15.98;;;12.00;;
72573;SDS011;60603;52.548;13.420;2022-08-19T03:01:31;19.02;;;12.70;;
72573;SDS011;60603;52.548;13.420;2022-08-19T03:03:59;17.08;;;12.32;;
72573;SDS011;60603;52.548;13.420;2022-08-19T03:06:26;16.90;;;12.43;;
72573;SDS011;60603;52.548;13.420;2022-08-19T03:08:52;20.55;;;13.45;;
72573;SDS011;60603;52.548;13.420;2022-08-19T03:11:20;18.42;;;12.68;;
72573;SDS011;60603;52.548;13.420;2022-08-19T03:13:51;18.00;;;12.45;;
72573;SDS011;60603;52.548;13.420;2022-08-19T03:16:18;16.75;;;12.25;;
72573;SDS011;60603;52.548;13.420;2022-08-19T03:18:45;16.33;;;11.82;;
72573;SDS011;60603;52.548;13.420;2022-08-19T03:21:16;19.05;;;12.65;;
72573;SDS011;60603;52.548;13.420;2022-08-19T03:23:45;22.02;;;13.25;;
72573;SDS011;60603;52.548;13.420;2022-08-19T03:26:21;17.95;;;12.77;;
72573;SDS011;60603;52.548;13.420;2022-08-19T03:28:47;17.50;;;13.25;;
72573;SDS011;60603;52.548;13.420;2022-08-19T03:31:15;16.90;;;12.25;;
72573;SDS011;60603;52.548;13.420;2022-08-19T03:33:43;18.88;;;12.98;;
72573;SDS011;60603;52.548;13.420;2022-08-19T03:38:37;17.83;;;13.05;;
72573;SDS011;60603;52.548;13.420;2022-08-19T03:41:12;18.55;;;13.55;;
72573;SDS011;60603;52.548;13.420;2022-08-19T03:43:39;19.33;;;14.73;;
72573;SDS011;60603;52.548;13.420;2022-08-19T03:46:13;18.77;;;13.32;;
72573;SDS011;60603;52.548;13.420;2022-08-19T03:48:41;19.80;;;13.85;;
72573;SDS011;60603;52.548;13.420;2022-08-19T03:51:08;18.70;;;13.05;;
72573;SDS011;60603;52.548;13.420;2022-08-19T03:53:41;16.92;;;12.18;;
72573;SDS011;60603;52.548;13.420;2022-08-19T03:56:08;17.95;;;13.18;;
72573;SDS011;60603;52.548;13.420;2022-08-19T03:58:35;16.25;;;12.15;;
72573;SDS011;60603;52.548;13.420;2022-08-19T04:01:06;16.27;;;12.52;;
72573;SDS011;60603;52.548;13.420;2022-08-19T04:03:33;19.83;;;13.65;;
72573;SDS011;60603;52.548;13.420;2022-08-19T04:06:13;18.65;;;12.73;;
72573;SDS011;60603;52.548;13.420;2022-08-19T04:08:42;15.10;;;11.45;;
72573;SDS011;60603;52.548;13.420;2022-08-19T04:11:09;16.73;;;12.27;;
72573;SDS011;60603;52.548;13.420;2022-08-19T04:13:36;20.65;;;12.85;;
72573;SDS011;60603;52.548;13.420;2022-08-19T04:16:02;18.35;;;12.45;;
72573;SDS011;60603;52.548;13.420;2022-08-19T04:18:29;16.63;;;11.88;;
72573;SDS011;60603;52.548;13.420;2022-08-19T04:20:55;18.23;;;12.38;;
72573;SDS011;60603;52.548;13.420;2022-08-19T04:23:22;16.70;;;11.77;;
72573;SDS011;60603;52.548;13.420;2022-08-19T04:25:48;20.27;;;12.77;;
72573;SDS011;60603;52.548;13.420;2022-08-19T04:28:14;17.13;;;11.63;;
72573;SDS011;60603;52.548;13.420;2022-08-19T04:30:41;17.85;;;12.88;;
72573;SDS011;60603;52.548;13.420;2022-08-19T04:33:09;17.02;;;12.70;;
72573;SDS011;60603;52.548;13.420;2022-08-19T04:35:36;15.57;;;12.38;;
72573;SDS011;60603;52.548;13.420;2022-08-19T04:38:04;19.23;;;13.48;;
72573;SDS011;60603;52.548;13.420;2022-08-19T04:40:30;18.85;;;13.27;;
72573;SDS011;60603;52.548;13.420;2022-08-19T04:43:14;16.73;;;12.60;;
72573;SDS011;60603;52.548;13.420;2022-08-19T04:45:42;20.38;;;13.98;;
72573;SDS011;60603;52.548;13.420;2022-08-19T04:48:08;17.85;;;12.68;;
72573;SDS011;60603;52.548;13.420;2022-08-19T04:50:35;17.00;;;13.05;;
72573;SDS011;60603;52.548;13.420;2022-08-19T04:53:01;16.60;;;12.50;;
72573;SDS011;60603;52.548;13.420;2022-08-19T04:55:26;16.67;;;13.45;;
72573;SDS011;60603;52.548;13.420;2022-08-19T04:57:53;18.30;;;12.73;;
72573;SDS011;60603;52.548;13.420;2022-08-19T05:00:19;19.70;;;13.93;;
72573;SDS011;60603;52.548;13.420;2022-08-19T05:02:45;17.98;;;12.73;;
72573;SDS011;60603;52.548;13.420;2022-08-19T05:05:11;18.92;;;13.82;;
72573;SDS011;60603;52.548;13.420;2022-08-19T05:07:37;18.42;;;13.93;;
72573;SDS011;60603;52.548;13.420;2022-08-19T05:10:04;20.63;;;13.07;;
72573;SDS011;60603;52.548;13.420;2022-08-19T05:12:30;21.63;;;14.50;;
72573;SDS011;60603;52.548;13.420;2022-08-19T05:14:57;15.93;;;11.95;;
72573;SDS011;60603;52.548;13.420;2022-08-19T05:17:23;16.50;;;11.65;;
72573;SDS011;60603;52.548;13.420;2022-08-19T05:19:50;15.95;;;11.90;;
72573;SDS011;60603;52.548;13.420;2022-08-19T05:22:34;16.55;;;11.13;;
72573;SDS011;60603;52.548;13.420;2022-08-19T05:25:02;16.40;;;12.25;;
72573;SDS011;60603;52.548;13.420;2022-08-19T05:27:33;16.60;;;11.05;;
72573;SDS011;60603;52.548;13.420;2022-08-19T05:29:59;15.45;;;10.43;;
72573;SDS011;60603;52.548;13.420;2022-08-19T05:32:25;15.07;;;11.57;;
72573;SDS011;60603;52.548;13.420;2022-08-19T05:34:51;16.60;;;11.80;;
72573;SDS011;60603;52.548;13.420;2022-08-19T05:37:17;15.43;;;10.93;;
72573;SDS011;60603;52.548;13.420;2022-08-19T05:39:43;16.20;;;11.23;;
72573;SDS011;60603;52.548;13.420;2022-08-19T05:42:10;14.90;;;11.07;;
72573;SDS011;60603;52.548;13.420;2022-08-19T05:44:38;14.93;;;10.55;;
72573;SDS011;60603;52.548;13.420;2022-08-19T05:47:09;16.05;;;10.70;;
72573;SDS011;60603;52.548;13.420;2022-08-19T05:49:37;14.30;;;10.23;;
72573;SDS011;60603;52.548;13.420;2022-08-19T05:52:04;15.75;;;10.60;;
72573;SDS011;60603;52.548;13.420;2022-08-19T05:54:31;13.82;;;11.10;;
72573;SDS011;60603;52.548;13.420;2022-08-19T05:56:57;17.25;;;11.85;;
72573;SDS011;60603;52.548;13.420;2022-08-19T05:59:23;16.50;;;12.20;;
72573;SDS011;60603;52.548;13.420;2022-08-19T06:01:50;17.92;;;12.88;;
72573;SDS011;60603;52.548;13.420;2022-08-19T06:04:18;15.90;;;11.98;;
72573;SDS011;60603;52.548;13.420;2022-08-19T06:06:45;14.85;;;11.52;;
72573;SDS011;60603;52.548;13.420;2022-08-19T06:09:15;17.23;;;11.60;;
72573;SDS011;60603;52.548;13.420;2022-08-19T06:14:10;15.63;;;11.60;;
72573;SDS011;60603;52.548;13.420;2022-08-19T06:16:38;14.98;;;10.95;;
72573;SDS011;60603;52.548;13.420;2022-08-19T06:19:06;15.48;;;11.57;;
72573;SDS011;60603;52.548;13.420;2022-08-19T06:21:34;15.13;;;12.02;;
72573;SDS011;60603;52.548;13.420;2022-08-19T06:24:08;15.65;;;11.75;;
72573;SDS011;60603;52.548;13.420;2022-08-19T06:26:35;17.70;;;12.68;;
72573;SDS011;60603;52.548;13.420;2022-08-19T06:29:02;18.23;;;13.25;;
72573;SDS011;60603;52.548;13.420;2022-08-19T06:31:31;17.92;;;12.85;;
72573;SDS011;60603;52.548;13.420;2022-08-19T06:34:02;16.98;;;12.32;;
72573;SDS011;60603;52.548;13.420;2022-08-19T06:36:34;17.48;;;11.55;;
72573;SDS011;60603;52.548;13.420;2022-08-19T06:39:13;18.45;;;13.18;;
72573;SDS011;60603;52.548;13.420;2022-08-19T06:41:42;17.88;;;13.15;;
72573;SDS011;60603;52.548;13.420;2022-08-19T06:44:09;16.30;;;12.75;;
72573;SDS011;60603;52.548;13.420;2022-08-19T06:46:36;16.05;;;12.18;;
72573;SDS011;60603;52.548;13.420;2022-08-19T06:51:34;16.08;;;12.93;;
72573;SDS011;60603;52.548;13.420;2022-08-19T06:53:59;17.38;;;13.18;;
72573;SDS011;60603;52.548;13.420;2022-08-19T06:56:28;19.67;;;13.52;;
72573;SDS011;60603;52.548;13.420;2022-08-19T06:59:10;18.27;;;13.23;;
72573;SDS011;60603;52.548;13.420;2022-08-19T07:01:39;19.73;;;14.45;;
72573;SDS011;60603;52.548;13.420;2022-08-19T07:04:06;17.58;;;12.85;;
72573;SDS011;60603;52.548;13.420;2022-08-19T07:06:33;17.50;;;13.02;;
72573;SDS011;60603;52.548;13.420;2022-08-19T07:08:59;15.98;;;13.23;;
72573;SDS011;60603;52.548;13.420;2022-08-19T07:11:25;16.95;;;13.05;;
72573;SDS011;60603;52.548;13.420;2022-08-19T07:13:51;19.48;;;13.48;;
72573;SDS011;60603;52.548;13.420;2022-08-19T07:16:18;17.45;;;13.20;;
72573;SDS011;60603;52.548;13.420;2022-08-19T07:18:45;18.27;;;14.45;;
72573;SDS011;60603;52.548;13.420;2022-08-19T07:21:20;21.27;;;13.48;;
72573;SDS011;60603;52.548;13.420;2022-08-19T07:23:48;19.88;;;14.07;;
72573;SDS011;60603;52.548;13.420;2022-08-19T07:26:15;18.42;;;13.70;;
72573;SDS011;60603;52.548;13.420;2022-08-19T07:28:49;18.40;;;13.80;;
72573;SDS011;60603;52.548;13.420;2022-08-19T07:31:16;17.80;;;13.60;;
72573;SDS011;60603;52.548;13.420;2022-08-19T07:33:45;18.17;;;14.00;;
72573;SDS011;60603;52.548;13.420;2022-08-19T07:36:12;17.30;;;12.90;;
72573;SDS011;60603;52.548;13.420;2022-08-19T07:38:41;19.17;;;13.77;;
72573;SDS011;60603;52.548;13.420;2022-08-19T07:41:11;18.73;;;15.02;;
72573;SDS011;60603;52.548;13.420;2022-08-19T07:43:39;19.20;;;13.82;;
72573;SDS011;60603;52.548;13.420;2022-08-19T07:46:05;20.85;;;14.50;;
72573;SDS011;60603;52.548;13.420;2022-08-19T07:48:31;20.00;;;16.00;;
72573;SDS011;60603;52.548;13.420;2022-08-19T07:50:59;19.67;;;15.20;;
72573;SDS011;60603;52.548;13.420;2022-08-19T07:53:27;19.30;;;14.23;;
72573;SDS011;60603;52.548;13.420;2022-08-19T07:55:54;20.75;;;14.88;;
72573;SDS011;60603;52.548;13.420;2022-08-19T07:58:21;18.85;;;14.73;;
72573;SDS011;60603;52.548;13.420;2022-08-19T08:00:48;20.83;;;16.02;;
72573;SDS011;60603;52.548;13.420;2022-08-19T08:03:15;20.00;;;15.75;;
72573;SDS011;60603;52.548;13.420;2022-08-19T08:05:42;23.67;;;18.38;;
72573;SDS011;60603;52.548;13.420;2022-08-19T08:08:28;21.52;;;15.50;;
72573;SDS011;60603;52.548;13.420;2022-08-19T08:11:13;21.75;;;16.00;;
72573;SDS011;60603;52.548;13.420;2022-08-19T08:13:42;19.75;;;14.80;;
72573;SDS011;60603;52.548;13.420;2022-08-19T08:16:08;20.38;;;15.00;;
72573;SDS011;60603;52.548;13.420;2022-08-19T08:18:34;19.90;;;15.20;;
72573;SDS011;60603;52.548;13.420;2022-08-19T08:21:07;19.15;;;15.32;;
72573;SDS011;60603;52.548;13.420;2022-08-19T08:23:33;20.05;;;15.93;;
72573;SDS011;60603;52.548;13.420;2022-08-19T08:25:58;19.15;;;15.60;;
72573;SDS011;60603;52.548;13.420;2022-08-19T08:28:25;17.25;;;14.50;;
72573;SDS011;60603;52.548;13.420;2022-08-19T08:30:52;20.33;;;14.65;;
72573;SDS011;60603;52.548;13.420;2022-08-19T08:33:23;21.33;;;15.52;;
72573;SDS011;60603;52.548;13.420;2022-08-19T08:35:50;21.42;;;15.02;;
72573;SDS011;60603;52.548;13.420;2022-08-19T08:38:18;18.77;;;15.73;;
72573;SDS011;60603;52.548;13.420;2022-08-19T08:40:47;21.50;;;17.05;;
72573;SDS011;60603;52.548;13.420;2022-08-19T08:43:32;21.15;;;16.13;;
72573;SDS011;60603;52.548;13.420;2022-08-19T08:46:01;20.00;;;15.70;;
72573;SDS011;60603;52.548;13.420;2022-08-19T08:48:32;21.85;;;16.42;;
72573;SDS011;60603;52.548;13.420;2022-08-19T08:51:02;18.35;;;14.90;;
72573;SDS011;60603;52.548;13.420;2022-08-19T08:53:30;18.15;;;14.80;;
72573;SDS011;60603;52.548;13.420;2022-08-19T08:55:57;19.95;;;15.80;;
72573;SDS011;60603;52.548;13.420;2022-08-19T08:58:27;20.05;;;15.85;;
72573;SDS011;60603;52.548;13.420;2022-08-19T09:00:55;19.85;;;16.20;;
72573;SDS011;60603;52.548;13.420;2022-08-19T09:03:26;19.73;;;15.93;;
72573;SDS011;60603;52.548;13.420;2022-08-19T09:08:47;19.85;;;15.40;;
72573;SDS011;60603;52.548;13.420;2022-08-19T09:11:24;19.50;;;15.95;;
72573;SDS011;60603;52.548;13.420;2022-08-19T09:16:37;22.00;;;15.18;;
72573;SDS011;60603;52.548;13.420;2022-08-19T09:19:06;18.52;;;15.75;;
72573;SDS011;60603;52.548;13.420;2022-08-19T09:21:33;19.65;;;15.27;;
72573;SDS011;60603;52.548;13.420;2022-08-19T09:24:02;18.48;;;14.75;;
72573;SDS011;60603;52.548;13.420;2022-08-19T09:26:30;17.40;;;14.05;;
72573;SDS011;60603;52.548;13.420;2022-08-19T09:29:00;19.35;;;14.02;;
72573;SDS011;60603;52.548;13.420;2022-08-19T09:31:28;17.73;;;13.55;;
72573;SDS011;60603;52.548;13.420;2022-08-19T09:33:55;18.90;;;14.52;;
72573;SDS011;60603;52.548;13.420;2022-08-19T09:38:51;18.48;;;13.48;;
72573;SDS011;60603;52.548;13.420;2022-08-19T09:41:19;19.90;;;13.25;;
72573;SDS011;60603;52.548;13.420;2022-08-19T09:43:50;17.65;;;13.30;;
72573;SDS011;60603;52.548;13.420;2022-08-19T09:46:21;17.08;;;13.38;;
72573;SDS011;60603;52.548;13.420;2022-08-19T09:48:49;21.20;;;15.13;;
72573;SDS011;60603;52.548;13.420;2022-08-19T09:51:18;18.33;;;13.32;;
72573;SDS011;60603;52.548;13.420;2022-08-19T09:53:46;15.25;;;12.88;;
72573;SDS011;60603;52.548;13.420;2022-08-19T09:56:15;20.02;;;14.63;;
72573;SDS011;60603;52.548;13.420;2022-08-19T09:58:41;16.55;;;12.38;;
72573;SDS011;60603;52.548;13.420;2022-08-19T10:01:07;16.38;;;12.10;;
72573;SDS011;60603;52.548;13.420;2022-08-19T10:03:34;15.68;;;12.93;;
72573;SDS011;60603;52.548;13.420;2022-08-19T10:06:01;16.75;;;13.15;;
72573;SDS011;60603;52.548;13.420;2022-08-19T10:08:34;15.45;;;12.55;;
72573;SDS011;60603;52.548;13.420;2022-08-19T10:11:01;18.85;;;12.88;;
72573;SDS011;60603;52.548;13.420;2022-08-19T10:13:30;16.25;;;13.30;;
72573;SDS011;60603;52.548;13.420;2022-08-19T10:16:07;15.63;;;12.63;;
72573;SDS011;60603;52.548;13.420;2022-08-19T10:18:36;18.15;;;12.88;;
72573;SDS011;60603;52.548;13.420;2022-08-19T10:21:11;16.88;;;13.68;;
72573;SDS011;60603;52.548;13.420;2022-08-19T10:23:49;17.85;;;12.93;;
72573;SDS011;60603;52.548;13.420;2022-08-19T10:26:17;15.98;;;12.18;;
72573;SDS011;60603;52.548;13.420;2022-08-19T10:28:45;15.27;;;12.05;;
72573;SDS011;60603;52.548;13.420;2022-08-19T10:31:12;17.33;;;12.63;;
72573;SDS011;60603;52.548;13.420;2022-08-19T10:33:42;14.95;;;12.80;;
72573;SDS011;60603;52.548;13.420;2022-08-19T10:36:12;16.90;;;13.07;;
72573;SDS011;60603;52.548;13.420;2022-08-19T10:38:40;19.33;;;13.27;;
72573;SDS011;60603;52.548;13.420;2022-08-19T10:41:07;16.40;;;12.48;;
72573;SDS011;60603;52.548;13.420;2022-08-19T10:43:37;16.38;;;12.95;;
72573;SDS011;60603;52.548;13.420;2022-08-19T10:46:08;18.73;;;13.80;;
72573;SDS011;60603;52.548;13.420;2022-08-19T10:48:35;17.95;;;12.80;;
72573;SDS011;60603;52.548;13.420;2022-08-19T10:51:01;15.35;;;12.50;;
72573;SDS011;60603;52.548;13.420;2022-08-19T10:53:46;16.15;;;12.38;;
72573;SDS011;60603;52.548;13.420;2022-08-19T10:56:12;17.25;;;12.27;;
72573;SDS011;60603;52.548;13.420;2022-08-19T10:58:57;16.85;;;12.43;;
72573;SDS011;60603;52.548;13.420;2022-08-19T11:01:26;17.63;;;12.05;;
72573;SDS011;60603;52.548;13.420;2022-08-19T11:03:52;16.02;;;12.00;;
72573;SDS011;60603;52.548;13.420;2022-08-19T11:06:18;15.48;;;11.63;;
72573;SDS011;60603;52.548;13.420;2022-08-19T11:08:45;19.23;;;12.10;;
72573;SDS011;60603;52.548;13.420;2022-08-19T11:11:11;14.50;;;11.32;;
72573;SDS011;60603;52.548;13.420;2022-08-19T11:13:38;14.25;;;11.60;;
72573;SDS011;60603;52.548;13.420;2022-08-19T11:16:10;15.70;;;12.65;;
72573;SDS011;60603;52.548;13.420;2022-08-19T11:18:39;16.73;;;12.27;;
72573;SDS011;60603;52.548;13.420;2022-08-19T11:23:35;15.25;;;11.18;;
72573;SDS011;60603;52.548;13.420;2022-08-19T11:26:01;15.88;;;11.63;;
72573;SDS011;60603;52.548;13.420;2022-08-19T11:28:27;14.75;;;11.98;;
72573;SDS011;60603;52.548;13.420;2022-08-19T11:30:53;13.68;;;11.35;;
72573;SDS011;60603;52.548;13.420;2022-08-19T11:33:19;15.00;;;11.15;;
72573;SDS011;60603;52.548;13.420;2022-08-19T11:35:45;15.57;;;11.93;;
72573;SDS011;60603;52.548;13.420;2022-08-19T11:38:11;14.45;;;12.35;;
72573;SDS011;60603;52.548;13.420;2022-08-19T11:40:37;15.48;;;11.82;;
72573;SDS011;60603;52.548;13.420;2022-08-19T11:43:03;15.45;;;11.82;;
72573;SDS011;60603;52.548;13.420;2022-08-19T11:45:31;17.15;;;12.32;;
72573;SDS011;60603;52.548;13.420;2022-08-19T11:47:57;16.15;;;11.70;;
72573;SDS011;60603;52.548;13.420;2022-08-19T11:50:23;14.48;;;11.32;;
72573;SDS011;60603;52.548;13.420;2022-08-19T11:52:49;14.30;;;10.80;;
72573;SDS011;60603;52.548;13.420;2022-08-19T11:55:15;13.55;;;10.60;;
72573;SDS011;60603;52.548;13.420;2022-08-19T11:57:41;13.95;;;10.95;;
72573;SDS011;60603;52.548;13.420;2022-08-19T12:00:09;13.80;;;11.23;;
72573;SDS011;60603;52.548;13.420;2022-08-19T12:02:39;14.57;;;10.98;;
72573;SDS011;60603;52.548;13.420;2022-08-19T12:05:05;13.25;;;9.77;;
72573;SDS011;60603;52.548;13.420;2022-08-19T12:07:32;13.50;;;9.88;;
72573;SDS011;60603;52.548;13.420;2022-08-19T12:09:59;11.60;;;9.25;;
72573;SDS011;60603;52.548;13.420;2022-08-19T12:12:25;14.50;;;9.50;;
72573;SDS011;60603;52.548;13.420;2022-08-19T12:14:52;13.88;;;10.60;;
72573;SDS011;60603;52.548;13.420;2022-08-19T12:17:22;12.18;;;9.77;;
72573;SDS011;60603;52.548;13.420;2022-08-19T12:19:49;13.65;;;9.30;;
72573;SDS011;60603;52.548;13.420;2022-08-19T12:22:14;11.48;;;9.43;;
72573;SDS011;60603;52.548;13.420;2022-08-19T12:24:40;13.50;;;9.50;;
72573;SDS011;60603;52.548;13.420;2022-08-19T12:27:06;10.48;;;8.13;;
72573;SDS011;60603;52.548;13.420;2022-08-19T12:29:32;12.82;;;8.20;;
72573;SDS011;60603;52.548;13.420;2022-08-19T12:31:59;11.32;;;7.85;;
72573;SDS011;60603;52.548;13.420;2022-08-19T12:34:27;11.35;;;7.63;;
72573;SDS011;60603;52.548;13.420;2022-08-19T12:36:56;9.57;;;7.28;;
72573;SDS011;60603;52.548;13.420;2022-08-19T12:39:23;11.23;;;7.90;;
72573;SDS011;60603;52.548;13.420;2022-08-19T12:41:49;10.32;;;7.70;;
72573;SDS011;60603;52.548;13.420;2022-08-19T12:44:14;12.63;;;7.97;;
72573;SDS011;60603;52.548;13.420;2022-08-19T12:46:40;16.38;;;11.77;;
72573;SDS011;60603;52.548;13.420;2022-08-19T12:49:06;9.73;;;8.00;;
72573;SDS011;60603;52.548;13.420;2022-08-19T12:51:32;13.05;;;7.78;;
72573;SDS011;60603;52.548;13.420;2022-08-19T12:53:58;13.00;;;9.27;;
72573;SDS011;60603;52.548;13.420;2022-08-19T12:56:23;12.00;;;8.82;;
72573;SDS011;60603;52.548;13.420;2022-08-19T12:58:49;11.77;;;8.55;;
72573;SDS011;60603;52.548;13.420;2022-08-19T13:01:16;11.63;;;9.50;;
72573;SDS011;60603;52.548;13.420;2022-08-19T13:03:42;15.07;;;8.98;;
72573;SDS011;60603;52.548;13.420;2022-08-19T13:06:08;12.73;;;10.10;;
72573;SDS011;60603;52.548;13.420;2022-08-19T13:08:35;11.05;;;9.15;;
72573;SDS011;60603;52.548;13.420;2022-08-19T13:11:08;12.75;;;9.18;;
72573;SDS011;60603;52.548;13.420;2022-08-19T13:13:37;13.60;;;9.52;;
72573;SDS011;60603;52.548;13.420;2022-08-19T13:16:07;10.85;;;9.35;;
72573;SDS011;60603;52.548;13.420;2022-08-19T13:18:35;12.80;;;9.60;;
72573;SDS011;60603;52.548;13.420;2022-08-19T13:21:04;12.30;;;9.93;;
72573;SDS011;60603;52.548;13.420;2022-08-19T13:23:32;13.32;;;9.90;;
72573;SDS011;60603;52.548;13.420;2022-08-19T13:25:59;12.13;;;9.82;;
72573;SDS011;60603;52.548;13.420;2022-08-19T13:28:26;14.23;;;9.50;;
72573;SDS011;60603;52.548;13.420;2022-08-19T13:31:14;12.68;;;9.05;;
72573;SDS011;60603;52.548;13.420;2022-08-19T13:33:59;12.07;;;9.35;;
72573;SDS011;60603;52.548;13.420;2022-08-19T13:36:25;11.70;;;9.18;;
72573;SDS011;60603;52.548;13.420;2022-08-19T13:38:51;12.30;;;9.25;;
72573;SDS011;60603;52.548;13.420;2022-08-19T13:41:17;11.95;;;9.35;;
72573;SDS011;60603;52.548;13.420;2022-08-19T13:43:44;11.25;;;9.57;;
72573;SDS011;60603;52.548;13.420;2022-08-19T13:46:10;11.65;;;9.63;;
72573;SDS011;60603;52.548;13.420;2022-08-19T13:48:39;11.70;;;9.85;;
72573;SDS011;60603;52.548;13.420;2022-08-19T13:51:06;11.50;;;8.93;;
72573;SDS011;60603;52.548;13.420;2022-08-19T13:53:38;13.93;;;10.02;;
72573;SDS011;60603;52.548;13.420;2022-08-19T13:56:06;11.50;;;9.50;;
72573;SDS011;60603;52.548;13.420;2022-08-19T13:58:35;12.10;;;9.48;;
72573;SDS011;60603;52.548;13.420;2022-08-19T14:01:02;11.70;;;9.80;;
72573;SDS011;60603;52.548;13.420;2022-08-19T14:03:29;11.73;;;9.60;;
72573;SDS011;60603;52.548;13.420;2022-08-19T14:05:56;12.63;;;9.60;;
72573;SDS011;60603;52.548;13.420;2022-08-19T14:08:22;13.65;;;9.75;;
72573;SDS011;60603;52.548;13.420;2022-08-19T14:10:48;12.45;;;9.48;;
72573;SDS011;60603;52.548;13.420;2022-08-19T14:13:15;12.68;;;10.25;;
72573;SDS011;60603;52.548;13.420;2022-08-19T14:15:42;13.00;;;9.90;;
72573;SDS011;60603;52.548;13.420;2022-08-19T14:18:08;11.32;;;9.13;;
72573;SDS011;60603;52.548;13.420;2022-08-19T14:20:34;11.95;;;9.45;;
72573;SDS011;60603;52.548;13.420;2022-08-19T14:23:00;12.43;;;9.57;;
72573;SDS011;60603;52.548;13.420;2022-08-19T14:25:27;15.20;;;9.98;;
72573;SDS011;60603;52.548;13.420;2022-08-19T14:27:54;12.27;;;9.07;;
72573;SDS011;60603;52.548;13.420;2022-08-19T14:30:22;15.00;;;9.45;;
72573;SDS011;60603;52.548;13.420;2022-08-19T14:32:57;12.43;;;9.63;;
72573;SDS011;60603;52.548;13.420;2022-08-19T14:35:24;13.65;;;9.63;;
72573;SDS011;60603;52.548;13.420;2022-08-19T14:37:52;13.70;;;9.35;;
72573;SDS011;60603;52.548;13.420;2022-08-19T14:40:22;11.50;;;9.60;;